Time;durP1;ratioP1;P1;durP2;ratioP2;P2;SDS_P1;SDS_P2;PMS_P1;PMS_P2;Temp;Humidity;BMP_temperature;BMP_pressure;BME280_temperature;BME280_humidity;BME280_pressure;Samples;Min_cycle;Max_cycle;Signal;HPM_P1;HPM_P2
2022/11/13 00:01:15;;;;;;;;;;;5.10;99.90;;;;;;4991729;28;19929;-73
2022/11/13 00:03:41;;;;;;;;;;;5.10;99.90;;;;;;4944111;28;182592;-72
2022/11/13 00:06:07;;;;;;;;;;;5.10;99.90;;;;;;4978247;28;20421;-72
2022/11/13 00:08:33;;;;;;;;;;;5.10;99.90;;;;;;4948459;28;206340;-72
2022/11/13 00:11:00;;;;;;;;;;;5.20;99.90;;;;;;4975277;28;19953;-72
2022/11/13 00:13:26;;;;;;;;;;;5.20;99.90;;;;;;4964820;28;218160;-72
2022/11/13 00:15:59;;;;;;;;;;;5.20;99.90;;;;;;4977353;28;19933;-73
2022/11/13 00:18:26;;;;;;;;;;;5.20;99.90;;;;;;4938420;28;208918;-71
2022/11/13 00:20:52;;;;;;;;;;;5.20;99.90;;;;;;4974791;28;19929;-72
2022/11/13 00:23:18;;;;;;;;;;;5.20;99.90;;;;;;4955069;28;208004;-72
2022/11/13 00:25:43;;;;;;;;;;;5.20;99.90;;;;;;5005636;28;19973;-72
2022/11/13 00:28:09;;;;;;;;;;;5.30;99.90;;;;;;4940065;28;231271;-72
2022/11/13 00:30:35;;;;;;;;;;;5.30;99.90;;;;;;4962047;28;19933;-72
2022/11/13 00:33:01;;;;;;;;;;;5.40;99.90;;;;;;4945847;28;202340;-72
2022/11/13 00:35:27;;;;;;;;;;;5.40;99.90;;;;;;5001160;28;19933;-72
2022/11/13 00:37:53;;;;;;;;;;;5.50;99.90;;;;;;4931939;28;207787;-73
2022/11/13 00:40:19;;;;;;;;;;;5.50;99.90;;;;;;4983441;28;19926;-73
2022/11/13 00:42:45;;;;;;;;;;;5.50;99.90;;;;;;4913705;28;208377;-73
2022/11/13 00:45:11;;;;;;;;;;;5.50;99.90;;;;;;5015159;28;20004;-73
2022/11/13 00:47:37;;;;;;;;;;;5.60;99.90;;;;;;4928228;28;205370;-73
2022/11/13 00:50:03;;;;;;;;;;;5.60;99.90;;;;;;4996305;28;20033;-73
2022/11/13 00:52:29;;;;;;;;;;;5.60;99.90;;;;;;4922989;28;207503;-73
2022/11/13 00:54:55;;;;;;;;;;;5.70;99.90;;;;;;4986085;28;19926;-72
2022/11/13 00:57:21;;;;;;;;;;;5.70;99.90;;;;;;4929880;28;206367;-73
2022/11/13 00:59:47;;;;;;;;;;;5.60;99.90;;;;;;5015782;28;19930;-72
2022/11/13 01:02:14;;;;;;;;;;;5.70;99.90;;;;;;4953491;28;206602;-69
2022/11/13 01:04:40;;;;;;;;;;;5.70;99.90;;;;;;4971599;28;19932;-72
2022/11/13 01:07:06;;;;;;;;;;;5.70;99.90;;;;;;4987641;28;19926;-72
2022/11/13 01:09:32;;;;;;;;;;;5.70;99.90;;;;;;4962073;28;39650;-72
2022/11/13 01:11:58;;;;;;;;;;;5.70;99.90;;;;;;4979868;28;20356;-72
2022/11/13 01:14:24;;;;;;;;;;;5.70;99.90;;;;;;4971964;28;162141;-73
2022/11/13 01:16:50;;;;;;;;;;;5.70;99.90;;;;;;4979735;28;19922;-73
2022/11/13 01:19:16;;;;;;;;;;;5.70;99.90;;;;;;4955370;28;207823;-73
2022/11/13 01:21:42;;;;;;;;;;;5.70;99.90;;;;;;5001756;28;19930;-73
2022/11/13 01:24:08;;;;;;;;;;;5.80;99.90;;;;;;4952431;28;208556;-72
2022/11/13 01:26:34;;;;;;;;;;;5.80;99.90;;;;;;4980798;28;19942;-73
2022/11/13 01:29:00;;;;;;;;;;;5.80;99.90;;;;;;4970718;28;195966;-73
2022/11/13 01:31:28;;;;;;;;;;;5.80;99.90;;;;;;4980336;28;19926;-72
2022/11/13 01:33:54;;;;;;;;;;;5.80;99.90;;;;;;4979770;28;209050;-72
2022/11/13 01:36:21;;;;;;;;;;;5.80;99.90;;;;;;4975881;28;19926;-72
2022/11/13 01:38:47;;;;;;;;;;;5.90;99.90;;;;;;4962828;28;207113;-72
2022/11/13 01:41:19;;;;;;;;;;;5.90;99.90;;;;;;4992187;28;19923;-72
2022/11/13 01:43:45;;;;;;;;;;;5.90;99.90;;;;;;4959508;28;197966;-73
2022/11/13 01:46:18;;;;;;;;;;;5.90;99.90;;;;;;4975879;28;19942;-73
2022/11/13 01:48:49;;;;;;;;;;;5.90;99.90;;;;;;4962238;28;224989;-73
2022/11/13 01:51:21;;;;;;;;;;;5.90;99.90;;;;;;4961853;28;19931;-73
2022/11/13 01:53:47;;;;;;;;;;;5.90;99.90;;;;;;4963786;28;206268;-74
2022/11/13 01:56:17;;;;;;;;;;;6.00;99.90;;;;;;4985382;28;19933;-73
2022/11/13 01:58:47;;;;;;;;;;;6.00;99.90;;;;;;4963069;28;132079;-73
2022/11/13 02:01:13;;;;;;;;;;;6.00;99.90;;;;;;4985114;28;19930;-73
2022/11/13 02:03:39;;;;;;;;;;;6.00;99.90;;;;;;4947482;28;121862;-73
2022/11/13 02:06:05;;;;;;;;;;;6.00;99.90;;;;;;4958460;28;19926;-73
2022/11/13 02:08:31;;;;;;;;;;;6.00;99.90;;;;;;4949475;28;163396;-73
2022/11/13 02:10:57;;;;;;;;;;;6.00;99.90;;;;;;4981205;28;19940;-73
2022/11/13 02:13:23;;;;;;;;;;;6.00;99.90;;;;;;4951407;28;178505;-73
2022/11/13 02:15:50;;;;;;;;;;;6.10;99.90;;;;;;4974109;28;19930;-73
2022/11/13 02:18:17;;;;;;;;;;;6.10;99.90;;;;;;4952004;28;179869;-73
2022/11/13 02:21:09;;;;;;;;;;;6.10;99.90;;;;;;5000752;28;19926;-73
2022/11/13 02:23:47;;;;;;;;;;;6.10;99.90;;;;;;4934501;28;195648;-72
2022/11/13 02:26:14;;;;;;;;;;;6.10;99.90;;;;;;4950085;28;20337;-72
2022/11/13 02:28:40;;;;;;;;;;;6.10;99.90;;;;;;4937104;28;207461;-72
2022/11/13 02:31:07;;;;;;;;;;;6.10;99.90;;;;;;4951854;28;20599;-73
2022/11/13 02:33:33;;;;;;;;;;;6.10;99.90;;;;;;4933003;28;93186;-72
2022/11/13 02:35:59;;;;;;;;;;;6.10;99.90;;;;;;4949393;28;19930;-72
2022/11/13 02:38:25;;;;;;;;;;;6.10;99.90;;;;;;4943125;28;152951;-72
2022/11/13 02:40:51;;;;;;;;;;;6.00;99.90;;;;;;4956782;28;19926;-73
2022/11/13 02:43:17;;;;;;;;;;;6.10;99.90;;;;;;4937692;28;193845;-73
2022/11/13 02:45:43;;;;;;;;;;;6.00;99.90;;;;;;4979071;28;19933;-72
2022/11/13 02:48:09;;;;;;;;;;;6.00;99.90;;;;;;4945807;28;154580;-72
2022/11/13 02:50:35;;;;;;;;;;;6.00;99.90;;;;;;4973751;28;19922;-72
2022/11/13 02:53:02;;;;;;;;;;;6.10;99.90;;;;;;4930004;28;153351;-72
2022/11/13 02:55:28;;;;;;;;;;;6.10;99.90;;;;;;4974295;28;19926;-72
2022/11/13 02:57:54;;;;;;;;;;;6.10;99.90;;;;;;4919418;28;147382;-72
2022/11/13 03:00:20;;;;;;;;;;;6.10;99.90;;;;;;4944854;28;19926;-72
2022/11/13 03:02:45;;;;;;;;;;;6.00;99.90;;;;;;4927517;28;212052;-72
2022/11/13 03:05:11;;;;;;;;;;;6.00;99.90;;;;;;4995450;28;19930;-73
2022/11/13 03:07:37;;;;;;;;;;;6.00;99.90;;;;;;4930998;28;207345;-72
2022/11/13 03:10:03;;;;;;;;;;;6.00;99.90;;;;;;4992289;28;20645;-72
2022/11/13 03:12:29;;;;;;;;;;;6.00;99.90;;;;;;4928404;28;213211;-72
2022/11/13 03:14:55;;;;;;;;;;;6.00;99.90;;;;;;4985522;28;19922;-72
2022/11/13 03:17:21;;;;;;;;;;;6.00;99.90;;;;;;4937599;28;220074;-73
2022/11/13 03:19:47;;;;;;;;;;;6.00;99.90;;;;;;4975855;28;19927;-73
2022/11/13 03:22:13;;;;;;;;;;;6.00;99.90;;;;;;4943551;28;208548;-72
2022/11/13 03:24:39;;;;;;;;;;;6.10;99.90;;;;;;4990570;28;20365;-73
2022/11/13 03:27:05;;;;;;;;;;;6.10;99.90;;;;;;5002892;28;19926;-74
2022/11/13 03:29:31;;;;;;;;;;;6.10;99.90;;;;;;4948250;28;206240;-73
2022/11/13 03:31:57;;;;;;;;;;;6.10;99.90;;;;;;4971087;28;20341;-73
2022/11/13 03:34:23;;;;;;;;;;;6.10;99.90;;;;;;4962725;28;212788;-73
2022/11/13 03:36:49;;;;;;;;;;;6.10;99.90;;;;;;4985995;28;19926;-73
2022/11/13 03:39:15;;;;;;;;;;;6.10;99.90;;;;;;4956056;28;140626;-73
2022/11/13 03:41:41;;;;;;;;;;;6.10;99.90;;;;;;4996649;28;19929;-72
2022/11/13 03:44:07;;;;;;;;;;;6.00;99.90;;;;;;4969265;28;167703;-73
2022/11/13 03:46:33;;;;;;;;;;;6.00;99.90;;;;;;4968600;28;19926;-73
2022/11/13 03:48:59;;;;;;;;;;;6.00;99.90;;;;;;4949070;28;218492;-73
2022/11/13 03:51:25;;;;;;;;;;;6.00;99.90;;;;;;4974201;28;20032;-73
2022/11/13 03:53:50;;;;;;;;;;;6.00;99.90;;;;;;4956489;28;175708;-72
2022/11/13 03:56:17;;;;;;;;;;;5.90;99.90;;;;;;4977339;28;19930;-73
2022/11/13 03:58:43;;;;;;;;;;;5.90;99.90;;;;;;4958070;28;181028;-73
2022/11/13 04:01:09;;;;;;;;;;;5.90;99.90;;;;;;4968672;28;20004;-72
2022/11/13 04:03:35;;;;;;;;;;;5.90;99.90;;;;;;4948884;28;207543;-72
2022/11/13 04:06:01;;;;;;;;;;;5.90;99.90;;;;;;4975325;28;19926;-73
2022/11/13 04:08:26;;;;;;;;;;;5.90;99.90;;;;;;4942281;28;231359;-73
2022/11/13 04:10:52;;;;;;;;;;;5.80;99.90;;;;;;4975898;28;20004;-73
2022/11/13 04:13:18;;;;;;;;;;;5.80;99.90;;;;;;4959595;28;142862;-73
2022/11/13 04:15:44;;;;;;;;;;;5.80;99.90;;;;;;4985009;28;19929;-73
2022/11/13 04:18:10;;;;;;;;;;;5.80;99.90;;;;;;4950269;28;213223;-73
2022/11/13 04:20:36;;;;;;;;;;;5.80;99.90;;;;;;5001692;28;20321;-74
2022/11/13 04:23:06;;;;;;;;;;;5.80;99.90;;;;;;4956758;28;168463;-74
2022/11/13 04:25:32;;;;;;;;;;;5.80;99.90;;;;;;4997370;28;19926;-74
2022/11/13 04:27:58;;;;;;;;;;;5.80;99.90;;;;;;4939524;28;123476;-73
2022/11/13 04:30:24;;;;;;;;;;;5.80;99.90;;;;;;4958825;28;19922;-73
2022/11/13 04:32:50;;;;;;;;;;;5.80;99.90;;;;;;4951317;28;156361;-73
2022/11/13 04:35:16;;;;;;;;;;;5.80;99.90;;;;;;4948314;28;19929;-73
2022/11/13 04:37:42;;;;;;;;;;;5.80;99.90;;;;;;4930114;28;211627;-73
2022/11/13 04:40:08;;;;;;;;;;;5.70;99.90;;;;;;4952750;28;20005;-73
2022/11/13 04:42:49;;;;;;;;;;;5.70;99.90;;;;;;4957566;28;192503;-73
2022/11/13 04:45:17;;;;;;;;;;;5.70;99.90;;;;;;5007327;28;19922;-73
2022/11/13 04:47:43;;;;;;;;;;;5.70;99.90;;;;;;4949408;28;205926;-72
2022/11/13 04:50:09;;;;;;;;;;;5.70;99.90;;;;;;4994993;28;19936;-73
2022/11/13 04:52:35;;;;;;;;;;;5.70;99.90;;;;;;4922999;28;222105;-72
2022/11/13 04:55:01;;;;;;;;;;;5.70;99.90;;;;;;4995724;28;20029;-73
2022/11/13 04:57:27;;;;;;;;;;;5.60;99.90;;;;;;4925392;28;206953;-72
2022/11/13 04:59:53;;;;;;;;;;;5.60;99.90;;;;;;4957138;28;19930;-73
2022/11/13 05:02:19;;;;;;;;;;;5.70;99.90;;;;;;4922968;28;207874;-72
2022/11/13 05:04:45;;;;;;;;;;;5.60;99.90;;;;;;4981720;28;20399;-72
2022/11/13 05:07:11;;;;;;;;;;;5.60;99.90;;;;;;4962399;28;206620;-72
2022/11/13 05:09:37;;;;;;;;;;;5.60;99.90;;;;;;4981903;28;75308;-73
2022/11/13 05:12:06;;;;;;;;;;;5.60;99.90;;;;;;4972443;28;19934;-73
2022/11/13 05:14:36;;;;;;;;;;;5.50;99.90;;;;;;4941549;28;276427;-73
2022/11/13 05:17:03;;;;;;;;;;;5.50;99.90;;;;;;5000123;28;19930;-72
2022/11/13 05:19:30;;;;;;;;;;;5.50;99.90;;;;;;4947744;28;209160;-72
2022/11/13 05:21:56;;;;;;;;;;;5.50;99.90;;;;;;5001576;28;19922;-72
2022/11/13 05:24:22;;;;;;;;;;;5.50;99.90;;;;;;4969975;28;195756;-73
2022/11/13 05:26:49;;;;;;;;;;;5.50;99.90;;;;;;4988189;28;19929;-73
2022/11/13 05:29:15;;;;;;;;;;;5.50;99.90;;;;;;4970366;28;239291;-73
2022/11/13 05:31:41;;;;;;;;;;;5.50;99.90;;;;;;4972511;28;19930;-73
2022/11/13 05:34:07;;;;;;;;;;;5.50;99.90;;;;;;4961206;28;214368;-73
2022/11/13 05:36:33;;;;;;;;;;;5.40;99.90;;;;;;4990022;28;19948;-73
2022/11/13 05:38:59;;;;;;;;;;;5.40;99.90;;;;;;4943543;28;209887;-74
2022/11/13 05:41:25;;;;;;;;;;;5.40;99.90;;;;;;4974504;28;19952;-74
2022/11/13 05:43:51;;;;;;;;;;;5.40;99.90;;;;;;4960576;28;205062;-73
2022/11/13 05:46:18;;;;;;;;;;;5.40;99.90;;;;;;4979044;28;19935;-74
2022/11/13 05:48:45;;;;;;;;;;;5.40;99.90;;;;;;4945929;28;206659;-73
2022/11/13 05:51:11;;;;;;;;;;;5.30;99.90;;;;;;4974832;28;19923;-73
2022/11/13 05:53:37;;;;;;;;;;;5.40;99.90;;;;;;4929928;28;208287;-72
2022/11/13 05:56:04;;;;;;;;;;;5.30;99.90;;;;;;4958335;28;19940;-72
2022/11/13 05:58:30;;;;;;;;;;;5.30;99.90;;;;;;4937471;28;196182;-72
2022/11/13 06:01:06;;;;;;;;;;;5.30;99.90;;;;;;4962596;28;19933;-72
2022/11/13 06:03:32;;;;;;;;;;;5.30;99.90;;;;;;4933206;28;160008;-73
2022/11/13 06:05:58;;;;;;;;;;;5.30;99.90;;;;;;4977681;28;19932;-72
2022/11/13 06:08:24;;;;;;;;;;;5.20;99.90;;;;;;4963483;28;148471;-72
2022/11/13 06:10:50;;;;;;;;;;;5.20;99.90;;;;;;4983598;28;19925;-74
2022/11/13 06:13:16;;;;;;;;;;;5.20;99.90;;;;;;4942778;28;207488;-73
2022/11/13 06:15:42;;;;;;;;;;;5.10;99.90;;;;;;4979226;28;20008;-74
2022/11/13 06:18:08;;;;;;;;;;;5.10;99.90;;;;;;4924316;28;215887;-73
2022/11/13 06:20:34;;;;;;;;;;;5.10;99.90;;;;;;4958176;28;19926;-73
2022/11/13 06:23:00;;;;;;;;;;;5.00;99.90;;;;;;4931869;28;207525;-73
2022/11/13 06:25:27;;;;;;;;;;;5.00;99.90;;;;;;4970090;28;19926;-73
2022/11/13 06:27:53;;;;;;;;;;;4.90;99.90;;;;;;4955468;28;187003;-73
2022/11/13 06:30:19;;;;;;;;;;;4.90;99.90;;;;;;5011946;28;19934;-73
2022/11/13 06:32:50;;;;;;;;;;;4.80;99.90;;;;;;4951033;28;173726;-73
2022/11/13 06:35:16;;;;;;;;;;;4.80;99.90;;;;;;5000102;28;19929;-73
2022/11/13 06:37:42;;;;;;;;;;;4.80;99.90;;;;;;4960312;28;142030;-73
2022/11/13 06:40:08;;;;;;;;;;;4.80;99.90;;;;;;4985145;28;19926;-73
2022/11/13 06:42:34;;;;;;;;;;;4.80;99.90;;;;;;4919653;28;236778;-73
2022/11/13 06:45:00;;;;;;;;;;;4.80;99.90;;;;;;4989600;28;20389;-73
2022/11/13 06:47:26;;;;;;;;;;;4.80;99.90;;;;;;4957660;28;207524;-73
2022/11/13 06:49:52;;;;;;;;;;;4.70;99.90;;;;;;4963424;28;19926;-73
2022/11/13 06:52:18;;;;;;;;;;;4.70;99.90;;;;;;4921028;28;211108;-73
2022/11/13 06:54:44;;;;;;;;;;;4.70;99.90;;;;;;4998593;28;19930;-73
2022/11/13 06:57:10;;;;;;;;;;;4.70;99.90;;;;;;4985380;28;215287;-72
2022/11/13 06:59:36;;;;;;;;;;;4.70;99.90;;;;;;4941947;28;206799;-73
2022/11/13 07:02:02;;;;;;;;;;;4.70;99.90;;;;;;4961905;28;19922;-73
2022/11/13 07:04:28;;;;;;;;;;;4.70;99.90;;;;;;4957321;28;147522;-73
2022/11/13 07:06:54;;;;;;;;;;;4.70;99.90;;;;;;4971999;28;19930;-73
2022/11/13 07:09:20;;;;;;;;;;;4.60;99.90;;;;;;4933254;28;175675;-73
2022/11/13 07:11:46;;;;;;;;;;;4.60;99.90;;;;;;4968354;28;19932;-73
2022/11/13 07:14:12;;;;;;;;;;;4.60;99.90;;;;;;4950061;28;211213;-73
2022/11/13 07:16:38;;;;;;;;;;;4.60;99.90;;;;;;4970522;28;19926;-74
2022/11/13 07:19:04;;;;;;;;;;;4.60;99.90;;;;;;4955004;28;190224;-74
2022/11/13 07:21:30;;;;;;;;;;;4.60;99.90;;;;;;4994726;28;19963;-73
2022/11/13 07:23:56;;;;;;;;;;;4.60;99.90;;;;;;4946374;28;151826;-74
2022/11/13 07:26:22;;;;;;;;;;;4.60;99.90;;;;;;4955350;28;19937;-74
2022/11/13 07:28:48;;;;;;;;;;;4.60;99.90;;;;;;4933736;28;207584;-73
2022/11/13 07:31:15;;;;;;;;;;;4.60;99.90;;;;;;4959728;28;19989;-73
2022/11/13 07:33:41;;;;;;;;;;;4.60;99.90;;;;;;4910340;28;191944;-73
2022/11/13 07:36:08;;;;;;;;;;;4.60;99.90;;;;;;4964258;28;20287;-73
2022/11/13 07:38:34;;;;;;;;;;;4.70;99.90;;;;;;4941501;28;211485;-73
2022/11/13 07:41:00;;;;;;;;;;;4.70;99.90;;;;;;4979130;28;19933;-73
2022/11/13 07:43:26;;;;;;;;;;;4.70;99.90;;;;;;4939564;28;207242;-73
2022/11/13 07:45:53;;;;;;;;;;;4.80;99.90;;;;;;4965333;28;20332;-73
2022/11/13 07:48:22;;;;;;;;;;;4.80;99.90;;;;;;4947244;28;127273;-73
2022/11/13 07:50:49;;;;;;;;;;;4.80;99.90;;;;;;4972593;28;20580;-73
2022/11/13 07:53:15;;;;;;;;;;;4.80;99.90;;;;;;4958367;28;203235;-73
2022/11/13 07:55:41;;;;;;;;;;;4.90;99.90;;;;;;4975322;28;19930;-73
2022/11/13 07:58:07;;;;;;;;;;;4.90;99.90;;;;;;4937124;28;207855;-73
2022/11/13 08:00:34;;;;;;;;;;;5.00;99.90;;;;;;4969562;28;20406;-74
2022/11/13 08:03:03;;;;;;;;;;;5.10;99.90;;;;;;4926761;28;212839;-73
2022/11/13 08:05:29;;;;;;;;;;;5.10;99.90;;;;;;4993406;28;19956;-74
2022/11/13 08:07:55;;;;;;;;;;;5.20;99.90;;;;;;4920909;28;207810;-74
2022/11/13 08:10:21;;;;;;;;;;;5.30;99.90;;;;;;4963158;28;19930;-73
2022/11/13 08:12:47;;;;;;;;;;;5.40;99.90;;;;;;4933943;28;189629;-73
2022/11/13 08:15:13;;;;;;;;;;;5.40;99.90;;;;;;4975710;28;19922;-73
2022/11/13 08:17:39;;;;;;;;;;;5.50;99.90;;;;;;4941972;28;146931;-73
2022/11/13 08:20:06;;;;;;;;;;;5.60;99.90;;;;;;4985688;28;19930;-73
2022/11/13 08:22:32;;;;;;;;;;;5.70;99.90;;;;;;4940569;28;183681;-73
2022/11/13 08:24:58;;;;;;;;;;;5.70;99.90;;;;;;4988458;28;19933;-73
2022/11/13 08:27:24;;;;;;;;;;;5.70;99.90;;;;;;4931384;28;226338;-72
2022/11/13 08:29:50;;;;;;;;;;;5.70;99.90;;;;;;4973502;28;20581;-73
2022/11/13 08:32:17;;;;;;;;;;;5.80;99.90;;;;;;4926282;28;212776;-71
2022/11/13 08:34:43;;;;;;;;;;;5.80;99.90;;;;;;4971185;28;20395;-73
2022/11/13 08:37:09;;;;;;;;;;;5.90;99.90;;;;;;4976390;28;207133;-73
2022/11/13 08:39:36;;;;;;;;;;;5.90;99.90;;;;;;4967378;28;206729;-73
2022/11/13 08:42:02;;;;;;;;;;;6.00;99.90;;;;;;4993619;28;20469;-73
2022/11/13 08:44:28;;;;;;;;;;;6.00;99.90;;;;;;4940817;28;206221;-69
2022/11/13 08:46:54;;;;;;;;;;;6.00;99.90;;;;;;4966556;28;19933;-71
2022/11/13 08:49:20;;;;;;;;;;;6.10;99.90;;;;;;4945371;28;155717;-70
2022/11/13 08:51:46;;;;;;;;;;;6.10;99.90;;;;;;4968010;28;20685;-70
2022/11/13 08:54:12;;;;;;;;;;;6.10;99.90;;;;;;4949093;28;211288;-70
2022/11/13 08:56:37;;;;;;;;;;;6.20;99.90;;;;;;4967834;28;19933;-70
2022/11/13 08:59:03;;;;;;;;;;;6.20;99.90;;;;;;4931658;28;206044;-70
2022/11/13 09:01:29;;;;;;;;;;;6.30;99.90;;;;;;4966777;28;20489;-70
2022/11/13 09:03:57;;;;;;;;;;;6.30;99.90;;;;;;4945602;28;215416;-70
2022/11/13 09:06:24;;;;;;;;;;;6.40;99.90;;;;;;4968480;28;19949;-70
2022/11/13 09:08:50;;;;;;;;;;;6.40;99.90;;;;;;4957279;28;206575;-70
2022/11/13 09:11:16;;;;;;;;;;;6.50;99.90;;;;;;4957621;28;19929;-71
2022/11/13 09:13:42;;;;;;;;;;;6.50;99.90;;;;;;4939606;28;210352;-71
2022/11/13 09:16:07;;;;;;;;;;;6.50;99.90;;;;;;4968617;28;20402;-71
2022/11/13 09:18:33;;;;;;;;;;;6.60;99.90;;;;;;4936544;28;213669;-71
2022/11/13 09:21:01;;;;;;;;;;;6.60;99.90;;;;;;4962963;28;20017;-72
2022/11/13 09:23:27;;;;;;;;;;;6.70;99.90;;;;;;4918706;28;213196;-71
2022/11/13 09:25:54;;;;;;;;;;;6.70;99.90;;;;;;4963250;28;19926;-71
2022/11/13 09:28:19;;;;;;;;;;;6.80;99.90;;;;;;4937424;28;213690;-71
2022/11/13 09:30:45;;;;;;;;;;;6.90;99.90;;;;;;4989805;28;20391;-71
2022/11/13 09:33:14;;;;;;;;;;;6.90;99.90;;;;;;4926935;28;209783;-71
2022/11/13 09:35:41;;;;;;;;;;;7.00;99.90;;;;;;4977899;28;19926;-70
2022/11/13 09:38:11;;;;;;;;;;;7.00;99.90;;;;;;4936522;28;207435;-71
2022/11/13 09:40:40;;;;;;;;;;;7.10;99.90;;;;;;4986985;28;20387;-70
2022/11/13 09:43:10;;;;;;;;;;;7.10;99.90;;;;;;4934765;28;212754;-71
2022/11/13 09:45:38;;;;;;;;;;;7.10;99.90;;;;;;4993816;28;19929;-71
2022/11/13 09:48:16;;;;;;;;;;;7.20;99.90;;;;;;4935026;28;208748;-72
2022/11/13 09:50:42;;;;;;;;;;;7.20;99.90;;;;;;4975656;28;20422;-71
2022/11/13 09:53:09;;;;;;;;;;;7.20;99.90;;;;;;4951584;28;206242;-71
2022/11/13 09:55:39;;;;;;;;;;;7.30;99.90;;;;;;4993630;28;19930;-70
2022/11/13 09:58:14;;;;;;;;;;;7.30;99.90;;;;;;4964149;28;167124;-70
2022/11/13 10:00:40;;;;;;;;;;;7.30;99.90;;;;;;4972501;28;19933;-70
2022/11/13 10:03:06;;;;;;;;;;;7.40;99.90;;;;;;4946935;28;210375;-70
2022/11/13 10:05:35;;;;;;;;;;;7.40;99.90;;;;;;5002978;28;20714;-71
2022/11/13 10:08:12;;;;;;;;;;;7.50;99.90;;;;;;4947125;28;198913;-71
2022/11/13 10:10:45;;;;;;;;;;;7.50;99.90;;;;;;4978295;28;20391;-71
2022/11/13 10:13:13;;;;;;;;;;;7.60;99.90;;;;;;4944794;28;206855;-70
2022/11/13 10:15:41;;;;;;;;;;;7.60;99.90;;;;;;4973448;28;19933;-70
2022/11/13 10:18:12;;;;;;;;;;;7.60;99.90;;;;;;4923504;28;216415;-71
2022/11/13 10:20:58;;;;;;;;;;;7.70;99.90;;;;;;4961448;28;20303;-71
2022/11/13 10:23:29;;;;;;;;;;;7.70;99.90;;;;;;4876761;28;188801;-71
2022/11/13 10:25:59;;;;;;;;;;;7.80;99.90;;;;;;4921336;29;19939;-70
2022/11/13 10:28:26;;;;;;;;;;;7.90;99.90;;;;;;4870451;29;110808;-70
2022/11/13 10:30:52;;;;;;;;;;;7.90;99.90;;;;;;4912050;28;20341;-71
2022/11/13 10:33:19;;;;;;;;;;;8.00;99.90;;;;;;4864707;28;207475;-70
2022/11/13 10:35:53;;;;;;;;;;;8.00;99.90;;;;;;4915321;29;20436;-70
2022/11/13 10:38:41;;;;;;;;;;;8.10;99.90;;;;;;4877705;28;138664;-71
2022/11/13 10:41:11;;;;;;;;;;;8.10;99.90;;;;;;4928573;29;19942;-71
2022/11/13 10:43:47;;;;;;;;;;;8.20;99.90;;;;;;4890431;28;196082;-70
2022/11/13 10:46:18;;;;;;;;;;;8.30;99.90;;;;;;4927572;29;19938;-70
2022/11/13 10:48:44;;;;;;;;;;;8.40;99.90;;;;;;4894416;28;142139;-70
2022/11/13 10:51:19;;;;;;;;;;;8.50;99.90;;;;;;4926713;28;19934;-70
2022/11/13 10:53:46;;;;;;;;;;;8.60;99.90;;;;;;4887389;28;189338;-70
2022/11/13 10:56:26;;;;;;;;;;;8.70;99.90;;;;;;4926300;29;19969;-70
2022/11/13 10:59:10;;;;;;;;;;;8.80;99.90;;;;;;4894169;28;116619;-70
2022/11/13 11:01:36;;;;;;;;;;;8.80;99.90;;;;;;4959481;28;19933;-70
2022/11/13 11:04:26;;;;;;;;;;;9.00;99.90;;;;;;4947047;28;206918;-70
2022/11/13 11:06:52;;;;;;;;;;;9.10;99.90;;;;;;4982731;28;19926;-70
2022/11/13 11:09:26;;;;;;;;;;;9.20;99.90;;;;;;4971910;28;99704;-69
2022/11/13 11:12:14;;;;;;;;;;;9.30;99.90;;;;;;4993404;28;20288;-70
2022/11/13 11:14:43;;;;;;;;;;;9.40;99.90;;;;;;4923928;28;215311;-70
2022/11/13 11:17:10;;;;;;;;;;;9.50;99.90;;;;;;4965116;28;230238;-70
2022/11/13 11:19:37;;;;;;;;;;;9.60;99.90;;;;;;4931427;28;162048;-70
2022/11/13 11:22:14;;;;;;;;;;;9.70;99.90;;;;;;4971183;28;19937;-70
2022/11/13 11:24:49;;;;;;;;;;;9.80;99.90;;;;;;4932466;28;221250;-70
2022/11/13 11:27:18;;;;;;;;;;;9.90;99.90;;;;;;4945733;28;215414;-68
2022/11/13 11:29:50;;;;;;;;;;;10.00;99.90;;;;;;4992269;28;19933;-71
2022/11/13 11:32:21;;;;;;;;;;;10.20;99.90;;;;;;4933243;28;209115;-69
2022/11/13 11:35:00;;;;;;;;;;;10.20;99.90;;;;;;5001032;28;20660;-70
2022/11/13 11:37:37;;;;;;;;;;;10.30;99.90;;;;;;4934131;28;209873;-70
2022/11/13 11:40:07;;;;;;;;;;;10.50;99.90;;;;;;5001396;28;19922;-71
2022/11/13 11:42:37;;;;;;;;;;;10.60;99.90;;;;;;4938538;28;210956;-70
2022/11/13 11:45:12;;;;;;;;;;;10.60;99.90;;;;;;4989094;28;19933;-70
2022/11/13 11:47:38;;;;;;;;;;;10.70;99.90;;;;;;4923843;28;208138;-70
2022/11/13 11:50:09;;;;;;;;;;;10.80;99.90;;;;;;4989244;28;19937;-71
2022/11/13 11:52:35;;;;;;;;;;;10.90;99.90;;;;;;4919889;28;207609;-70
2022/11/13 11:55:27;;;;;;;;;;;10.90;99.90;;;;;;4993674;28;19926;-71
2022/11/13 11:58:16;;;;;;;;;;;11.10;99.90;;;;;;4925606;28;141900;-70
2022/11/13 12:00:48;;;;;;;;;;;11.80;99.90;;;;;;4975018;28;19925;-70
2022/11/13 12:03:27;;;;;;;;;;;13.80;99.90;;;;;;4920039;28;171241;-71
2022/11/13 12:06:02;;;;;;;;;;;15.50;99.90;;;;;;4976365;28;19926;-71
2022/11/13 12:08:34;;;;;;;;;;;16.80;99.90;;;;;;4916166;28;209082;-71
2022/11/13 12:11:06;;;;;;;;;;;17.90;99.90;;;;;;4956831;28;19927;-71
2022/11/13 12:13:38;;;;;;;;;;;18.90;99.90;;;;;;4909300;28;215761;-71
2022/11/13 12:16:10;;;;;;;;;;;19.80;99.90;;;;;;4932308;28;19953;-71
2022/11/13 12:18:39;;;;;;;;;;;20.60;99.90;;;;;;4896351;28;207612;-71
2022/11/13 12:21:08;;;;;;;;;;;21.30;99.90;;;;;;4942321;28;19930;-71
2022/11/13 12:23:37;;;;;;;;;;;21.60;99.80;;;;;;4916139;28;133250;-72
2022/11/13 12:26:08;;;;;;;;;;;21.80;99.00;;;;;;4968067;28;19929;-72
2022/11/13 12:28:44;;;;;;;;;;;22.30;99.80;;;;;;4914913;28;158605;-71
2022/11/13 12:31:10;;;;;;;;;;;22.60;98.30;;;;;;4946713;28;19926;-72
2022/11/13 12:33:54;;;;;;;;;;;22.70;96.00;;;;;;4937594;28;206365;-71
2022/11/13 12:36:21;;;;;;;;;;;23.10;97.30;;;;;;4975994;28;19921;-72
2022/11/13 12:38:47;;;;;;;;;;;23.70;97.70;;;;;;4962858;28;208944;-72
2022/11/13 12:41:28;;;;;;;;;;;24.10;96.10;;;;;;4979390;28;20092;-71
2022/11/13 12:43:58;;;;;;;;;;;24.50;95.80;;;;;;4958041;28;207197;-71
2022/11/13 12:46:35;;;;;;;;;;;24.90;95.00;;;;;;4976177;28;19925;-72
2022/11/13 12:49:01;;;;;;;;;;;25.20;95.40;;;;;;4930857;28;216373;-71
2022/11/13 12:51:36;;;;;;;;;;;25.60;94.70;;;;;;4953459;28;20437;-72
2022/11/13 12:54:02;;;;;;;;;;;26.00;94.40;;;;;;4948231;28;185164;-71
2022/11/13 12:56:30;;;;;;;;;;;26.20;93.00;;;;;;4971168;28;20342;-71
2022/11/13 12:58:58;;;;;;;;;;;25.90;92.40;;;;;;4943520;28;215423;-71
2022/11/13 13:01:26;;;;;;;;;;;25.50;91.90;;;;;;4975048;28;19929;-71
2022/11/13 13:04:11;;;;;;;;;;;24.70;91.80;;;;;;4905757;28;212288;-72
2022/11/13 13:06:40;;;;;;;;;;;24.50;92.00;;;;;;4969370;28;19926;-71
2022/11/13 13:09:24;;;;;;;;;;;24.70;92.10;;;;;;4958627;28;108025;-71
2022/11/13 13:12:12;;;;;;;;;;;25.00;91.40;;;;;;4967023;28;19937;-71
2022/11/13 13:14:58;;;;;;;;;;;25.10;91.60;;;;;;4931109;28;183541;-72
2022/11/13 13:17:24;;;;;;;;;;;25.30;91.90;;;;;;4911430;28;209738;-70
2022/11/13 13:20:16;;;;;;;;;;;25.60;91.70;;;;;;4942238;28;19930;-72
2022/11/13 13:22:53;;;;;;;;;;;25.30;91.80;;;;;;4902296;28;210718;-71
2022/11/13 13:25:24;;;;;;;;;;;25.60;90.80;;;;;;4955868;28;20304;-72
2022/11/13 13:27:57;;;;;;;;;;;25.90;90.70;;;;;;4903524;28;195341;-71
2022/11/13 13:30:26;;;;;;;;;;;26.20;88.80;;;;;;4957243;28;19923;-71
2022/11/13 13:33:01;;;;;;;;;;;26.30;90.50;;;;;;4907004;28;210435;-73
2022/11/13 13:35:36;;;;;;;;;;;26.60;89.10;;;;;;4967101;28;19922;-72
2022/11/13 13:38:05;;;;;;;;;;;26.90;89.30;;;;;;4917778;28;123698;-71
2022/11/13 13:40:34;;;;;;;;;;;26.90;88.40;;;;;;4962997;28;19922;-72
2022/11/13 13:43:15;;;;;;;;;;;27.30;87.30;;;;;;4913864;28;145503;-70
2022/11/13 13:46:13;;;;;;;;;;;27.50;84.00;;;;;;4963425;28;19926;-72
2022/11/13 13:48:40;;;;;;;;;;;27.50;84.70;;;;;;4861867;29;208407;-72
2022/11/13 13:51:29;;;;;;;;;;;27.20;84.40;;;;;;4897989;29;19927;-71
2022/11/13 13:53:57;;;;;;;;;;;27.20;83.80;;;;;;4864621;29;207350;-71
2022/11/13 13:56:23;;;;;;;;;;;27.30;82.00;;;;;;4894128;29;19931;-70
2022/11/13 13:58:49;;;;;;;;;;;27.40;83.40;;;;;;4870704;29;122587;-72
2022/11/13 14:01:25;;;;;;;;;;;27.50;83.40;;;;;;4908450;29;19927;-72
2022/11/13 14:04:09;;;;;;;;;;;27.70;81.80;;;;;;4889373;28;135924;-71
2022/11/13 14:06:46;;;;;;;;;;;27.00;79.10;;;;;;4924644;29;19927;-71
2022/11/13 14:09:17;;;;;;;;;;;26.70;80.00;;;;;;4900658;28;208504;-71
2022/11/13 14:11:43;;;;;;;;;;;26.60;80.70;;;;;;4923440;29;19926;-71
2022/11/13 14:14:14;;;;;;;;;;;26.50;79.80;;;;;;4888618;28;207010;-71
2022/11/13 14:16:47;;;;;;;;;;;26.40;80.00;;;;;;4919634;29;20496;-71
2022/11/13 14:19:13;;;;;;;;;;;24.90;78.90;;;;;;4875152;29;214602;-71
2022/11/13 14:21:39;;;;;;;;;;;23.00;80.20;;;;;;4907552;29;19926;-71
2022/11/13 14:24:07;;;;;;;;;;;21.20;81.30;;;;;;4888559;28;120204;-70
2022/11/13 14:26:33;;;;;;;;;;;20.00;85.10;;;;;;4949334;28;19927;-72
2022/11/13 14:29:00;;;;;;;;;;;19.00;87.40;;;;;;4927030;28;207213;-72